Time;durP1;ratioP1;P1;durP2;ratioP2;P2;SDS_P1;SDS_P2;PMS_P1;PMS_P2;Temp;Humidity;BMP_temperature;BMP_pressure;BME280_temperature;BME280_humidity;BME280_pressure;Samples;Min_cycle;Max_cycle;Signal;HPM_P1;HPM_P2
2022/12/28 00:01:06;;;;;;;8.73;4.90;;;;;;;5.34;100.00;101599.16;4993001;28;20080;-77
2022/12/28 00:03:32;;;;;;;9.43;4.90;;;;;;;5.35;100.00;101590.44;4990831;28;20026;-77
2022/12/28 00:05:57;;;;;;;9.48;4.95;;;;;;;5.34;100.00;101583.50;4976433;28;20494;-76
2022/12/28 00:08:22;;;;;;;7.63;4.60;;;;;;;5.35;100.00;101580.00;4973284;28;20047;-76
2022/12/28 00:10:52;;;;;;;11.77;5.20;;;;;;;5.38;100.00;101573.81;4983757;28;20654;-77
2022/12/28 00:13:17;;;;;;;8.95;5.00;;;;;;;5.39;100.00;101565.06;4977846;28;20035;-77
2022/12/28 00:15:43;;;;;;;11.05;5.03;;;;;;;5.39;100.00;101565.06;4972080;28;20023;-77
2022/12/28 00:18:08;;;;;;;12.57;5.15;;;;;;;5.41;100.00;101553.66;4954256;28;20062;-77
2022/12/28 00:20:34;;;;;;;9.38;5.47;;;;;;;5.42;100.00;101533.63;4991208;28;20109;-77
2022/12/28 00:23:08;;;;;;;11.98;5.80;;;;;;;5.41;100.00;101530.16;4985013;28;20100;-77
2022/12/28 00:25:35;;;;;;;13.40;5.70;;;;;;;5.41;100.00;101505.81;4990481;28;20105;-76
2022/12/28 00:28:01;;;;;;;8.07;5.22;;;;;;;5.42;100.00;101497.94;4990844;28;20023;-77
2022/12/28 00:30:26;;;;;;;9.93;5.43;;;;;;;5.44;100.00;101496.09;4990591;28;20061;-77
2022/12/28 00:32:51;;;;;;;10.02;5.65;;;;;;;5.45;100.00;101491.72;4989439;28;20674;-77
2022/12/28 00:35:17;;;;;;;9.95;5.15;;;;;;;5.44;100.00;101490.88;4974905;28;20403;-77
2022/12/28 00:37:43;;;;;;;11.23;5.00;;;;;;;5.44;100.00;101485.66;4976217;28;20028;-76
2022/12/28 00:40:09;;;;;;;10.02;4.82;;;;;;;5.47;100.00;101501.19;4979041;28;20034;-77
2022/12/28 00:42:40;;;;;;;11.07;5.20;;;;;;;5.48;100.00;101495.06;4971612;28;20033;-76
2022/12/28 00:45:06;;;;;;;8.77;5.00;;;;;;;5.50;100.00;101493.22;4971923;28;20194;-77
2022/12/28 00:47:31;;;;;;;10.40;5.47;;;;;;;5.52;100.00;101488.78;4986444;28;20030;-77
2022/12/28 00:49:57;;;;;;;6.93;4.90;;;;;;;5.55;100.00;101487.81;4976782;28;20804;-76
2022/12/28 00:52:23;;;;;;;9.32;4.85;;;;;;;5.56;100.00;101476.47;4974826;28;20065;-77
2022/12/28 00:54:49;;;;;;;9.75;5.13;;;;;;;5.57;100.00;101471.16;4972442;28;20101;-77
2022/12/28 00:57:14;;;;;;;10.48;5.00;;;;;;;5.60;100.00;101459.75;4967299;28;20102;-77
2022/12/28 00:59:40;;;;;;;10.27;4.95;;;;;;;5.61;100.00;101461.47;4972995;28;20034;-77
2022/12/28 01:02:05;;;;;;;10.23;4.95;;;;;;;5.61;100.00;101457.09;4973416;28;20477;-77
2022/12/28 01:04:31;;;;;;;8.82;4.95;;;;;;;5.63;100.00;101460.50;4972825;28;20018;-76
2022/12/28 01:06:56;;;;;;;11.18;5.25;;;;;;;5.65;100.00;101453.44;4979142;28;20113;-77
2022/12/28 01:09:21;;;;;;;8.07;4.60;;;;;;;5.65;100.00;101450.84;4991038;28;20549;-77
2022/12/28 01:11:53;;;;;;;9.60;4.90;;;;;;;5.68;100.00;101441.16;4980902;28;20030;-76
2022/12/28 01:14:21;;;;;;;7.65;4.90;;;;;;;5.68;100.00;101452.44;4973993;28;20040;-76
2022/12/28 01:16:47;;;;;;;12.57;4.97;;;;;;;5.72;100.00;101447.94;4981109;28;20030;-76
2022/12/28 01:19:18;;;;;;;9.93;4.65;;;;;;;5.74;100.00;101440.88;4989692;28;20049;-76
2022/12/28 01:21:48;;;;;;;6.72;4.43;;;;;;;5.77;100.00;101438.16;4989141;28;20026;-76
2022/12/28 01:24:13;;;;;;;8.23;4.97;;;;;;;5.80;100.00;101435.38;5003962;28;20034;-76
2022/12/28 01:26:39;;;;;;;7.90;4.60;;;;;;;5.82;100.00;101423.13;5003652;28;20034;-76
2022/12/28 01:29:04;;;;;;;8.43;4.40;;;;;;;5.82;100.00;101433.56;4988761;28;20026;-76
2022/12/28 01:31:30;;;;;;;8.30;4.70;;;;;;;5.84;100.00;101416.91;4969880;28;20395;-76
2022/12/28 01:33:59;;;;;;;7.47;4.65;;;;;;;5.86;100.00;101404.63;4981194;28;20037;-76
2022/12/28 01:36:27;;;;;;;7.15;4.78;;;;;;;5.87;100.00;101406.31;4986439;28;20388;-76
2022/12/28 01:39:01;;;;;;;8.38;4.55;;;;;;;5.88;100.00;101418.47;4982687;28;20114;-76
2022/12/28 01:41:28;;;;;;;8.45;4.82;;;;;;;5.90;100.00;101411.44;5004639;28;20553;-76
2022/12/28 01:43:54;;;;;;;7.65;4.50;;;;;;;5.93;100.00;101400.84;4979490;28;20037;-76
2022/12/28 01:46:23;;;;;;;6.60;4.38;;;;;;;5.96;100.00;101405.91;4979349;28;20039;-76
2022/12/28 01:49:12;;;;;;;8.90;4.93;;;;;;;6.00;100.00;101395.34;4960408;28;20396;-76
2022/12/28 01:52:12;;;;;;;9.43;4.75;;;;;;;6.04;100.00;101392.53;4987810;28;20212;-76
2022/12/28 01:55:00;;;;;;;7.45;4.22;;;;;;;6.06;100.00;101393.31;4985610;28;20357;-76
2022/12/28 01:57:30;;;;;;;7.15;4.20;;;;;;;6.08;100.00;101383.63;4993523;28;20022;-76
2022/12/28 02:00:01;;;;;;;8.48;4.25;;;;;;;6.12;100.00;101379.97;4991380;28;20053;-76
2022/12/28 02:02:28;;;;;;;8.38;4.60;;;;;;;6.13;100.00;101365.13;4990873;28;20030;-76
2022/12/28 02:04:54;;;;;;;8.07;4.20;;;;;;;6.18;100.00;101357.91;4971454;28;20035;-76
2022/12/28 02:07:42;;;;;;;7.53;4.40;;;;;;;6.19;100.00;101360.47;4971120;28;20167;-76
2022/12/28 02:10:10;;;;;;;6.95;4.00;;;;;;;6.20;100.00;101346.47;4976186;28;20054;-76
2022/12/28 02:12:35;;;;;;;10.68;4.43;;;;;;;6.20;100.00;101346.47;4987741;28;20022;-76
2022/12/28 02:15:01;;;;;;;6.57;4.35;;;;;;;6.23;100.00;101343.72;4989254;28;20061;-76
2022/12/28 02:17:27;;;;;;;6.63;3.97;;;;;;;6.26;100.00;101320.03;4991240;28;20026;-76
2022/12/28 02:19:52;;;;;;;7.88;4.30;;;;;;;6.28;100.00;101318.22;4977118;28;20069;-76
2022/12/28 02:22:40;;;;;;;7.10;3.80;;;;;;;6.33;100.00;101309.28;4985486;28;20038;-77
2022/12/28 02:25:40;;;;;;;10.48;4.38;;;;;;;6.31;100.00;101318.97;4968879;28;20027;-77
2022/12/28 02:28:36;;;;;;;9.63;4.28;;;;;;;6.31;100.00;101317.22;4971192;28;20468;-78
2022/12/28 02:31:10;;;;;;;6.47;4.22;;;;;;;6.26;100.00;101296.53;4975492;28;20022;-77
2022/12/28 02:33:43;;;;;;;10.32;4.50;;;;;;;6.25;100.00;101287.00;4989579;28;20026;-78
2022/12/28 02:36:21;;;;;;;8.73;4.70;;;;;;;6.29;100.00;101280.69;4980677;28;20159;-76
2022/12/28 02:38:58;;;;;;;8.82;4.45;;;;;;;6.26;100.00;101283.47;4969661;28;20034;-75
2022/12/28 02:41:24;;;;;;;7.55;4.85;;;;;;;6.26;100.00;101278.25;4976982;28;20517;-75
2022/12/28 02:43:52;;;;;;;9.52;4.75;;;;;;;6.25;100.00;101280.94;4970865;28;20033;-75
2022/12/28 02:52:21;;;;;;;7.75;4.70;;;;;;;6.20;100.00;101268.09;4958376;28;20395;-75
2022/12/28 02:58:09;;;;;;;9.25;5.30;;;;;;;6.18;100.00;101264.72;4982997;28;20122;-75
2022/12/28 03:01:01;;;;;;;8.10;5.10;;;;;;;6.18;100.00;101258.63;4983561;28;20528;-75
2022/12/28 03:03:40;;;;;;;7.28;5.38;;;;;;;6.16;100.00;101252.66;5000550;28;20039;-78
2022/12/28 03:09:28;;;;;;;7.35;5.53;;;;;;;6.17;100.00;101251.72;4989434;28;20045;-78
2022/12/28 03:12:21;;;;;;;9.18;6.10;;;;;;;6.14;100.00;101242.28;4989370;28;20041;-79
2022/12/28 03:15:03;;;;;;;8.40;6.20;;;;;;;6.14;100.00;101251.88;4970626;28;20029;-78
2022/12/28 03:31:47;;;;;;;8.38;6.43;;;;;;;6.18;100.00;101228.13;4975813;28;20049;-78
2022/12/28 03:34:13;;;;;;;9.10;6.35;;;;;;;6.19;100.00;101229.81;4972169;28;20027;-78
2022/12/28 03:37:01;;;;;;;8.18;6.32;;;;;;;6.20;100.00;101234.13;4977450;28;20230;-78
2022/12/28 03:39:38;;;;;;;8.75;6.70;;;;;;;6.24;100.00;101226.97;4979582;28;20039;-78
2022/12/28 03:45:15;;;;;;;11.35;6.97;;;;;;;6.28;100.00;101233.75;4971209;28;20081;-76
2022/12/28 03:47:46;;;;;;;9.60;7.07;;;;;;;6.28;100.00;101224.13;4971537;28;20022;-76
2022/12/28 03:50:12;;;;;;;9.40;6.60;;;;;;;6.29;100.00;101210.16;4966544;28;20035;-76
2022/12/28 03:52:38;;;;;;;9.77;6.78;;;;;;;6.33;100.00;101210.00;4981412;28;20034;-76
2022/12/28 03:55:04;;;;;;;10.68;6.80;;;;;;;6.36;100.00;101204.59;4988209;28;20138;-76
2022/12/28 03:57:30;;;;;;;10.63;6.72;;;;;;;6.39;100.00;101199.22;4979983;28;20022;-75
2022/12/28 03:59:56;;;;;;;11.32;7.13;;;;;;;6.41;100.00;101192.19;4969511;28;20490;-76
2022/12/28 04:02:21;;;;;;;8.55;6.35;;;;;;;6.44;100.00;101194.63;4970026;28;20102;-76
2022/12/28 04:04:47;;;;;;;11.00;6.63;;;;;;;6.48;100.00;101188.31;4970418;28;20062;-76
2022/12/28 04:07:12;;;;;;;10.85;6.30;;;;;;;6.50;100.00;101189.94;4966576;28;20030;-76
2022/12/28 04:09:37;;;;;;;13.05;6.22;;;;;;;6.56;100.00;101186.16;4978963;28;20054;-76
2022/12/28 04:12:03;;;;;;;10.60;5.95;;;;;;;6.59;100.00;101180.75;4989121;28;20030;-76
2022/12/28 04:14:32;;;;;;;9.65;5.90;;;;;;;6.60;100.00;101191.13;4986921;28;20038;-76
2022/12/28 04:16:57;;;;;;;8.95;6.18;;;;;;;6.62;100.00;101185.84;4976247;28;20562;-76
2022/12/28 04:19:22;;;;;;;7.22;5.93;;;;;;;6.64;100.00;101185.75;4981093;28;20121;-76
2022/12/28 04:21:51;;;;;;;12.10;6.32;;;;;;;6.68;100.00;101195.97;4990040;28;20088;-76
2022/12/28 04:24:17;;;;;;;7.32;5.47;;;;;;;6.69;100.00;101189.81;4978332;28;20031;-79
2022/12/28 04:26:42;;;;;;;9.93;5.70;;;;;;;6.73;100.00;101193.09;4969929;28;20041;-78
2022/12/28 04:29:07;;;;;;;7.00;5.38;;;;;;;6.75;100.00;101188.63;4979766;28;20208;-77
2022/12/28 04:31:33;;;;;;;8.68;5.50;;;;;;;6.79;100.00;101191.00;4990897;28;20533;-77
2022/12/28 04:33:59;;;;;;;9.60;5.57;;;;;;;6.81;100.00;101191.81;4989439;28;20026;-77
2022/12/28 04:36:25;;;;;;;8.73;5.60;;;;;;;6.84;100.00;101196.03;4980725;28;20033;-76
2022/12/28 04:39:13;;;;;;;7.75;5.50;;;;;;;6.87;100.00;101190.63;4974024;28;20038;-76
2022/12/28 04:41:39;;;;;;;11.20;5.47;;;;;;;6.88;100.00;101182.69;4972317;28;20038;-76
2022/12/28 04:44:05;;;;;;;12.95;5.97;;;;;;;6.87;100.00;101181.00;5002760;28;20080;-76
2022/12/28 04:46:31;;;;;;;10.23;5.75;;;;;;;6.89;100.00;101179.16;4989334;28;20030;-76
2022/12/28 04:48:59;;;;;;;9.45;5.63;;;;;;;6.90;100.00;101191.31;4990113;28;20037;-76
2022/12/28 04:51:27;;;;;;;9.85;5.50;;;;;;;6.91;100.00;101181.69;4992635;28;20418;-76
2022/12/28 04:54:01;;;;;;;9.98;6.32;;;;;;;6.93;100.00;101179.00;4986058;28;20038;-76
2022/12/28 04:56:27;;;;;;;8.80;5.35;;;;;;;6.91;100.00;101176.47;4978597;28;20045;-76
2022/12/28 04:59:01;;;;;;;7.97;5.80;;;;;;;6.90;100.00;101175.63;4992615;28;20379;-76
2022/12/28 05:01:27;;;;;;;9.00;5.82;;;;;;;6.94;100.00;101172.84;4991518;28;20116;-76
2022/12/28 05:03:53;;;;;;;7.82;6.03;;;;;;;6.96;100.00;101178.81;4974618;28;20129;-76
2022/12/28 05:06:26;;;;;;;10.48;5.90;;;;;;;6.97;100.00;101177.91;4991950;28;20030;-76
2022/12/28 05:08:52;;;;;;;9.25;5.72;;;;;;;6.98;100.00;101169.97;4989932;28;20053;-76
2022/12/28 05:11:22;;;;;;;7.25;5.63;;;;;;;6.98;100.00;101176.97;4972854;28;20060;-76
2022/12/28 05:13:51;;;;;;;8.90;5.85;;;;;;;6.98;100.00;101169.13;4991184;28;20062;-76
2022/12/28 05:16:21;;;;;;;10.15;5.80;;;;;;;6.98;100.00;101172.59;4991183;28;20026;-76
2022/12/28 05:18:56;;;;;;;8.27;5.65;;;;;;;6.97;100.00;101181.34;4989356;28;20014;-77
2022/12/28 05:21:32;;;;;;;8.77;5.97;;;;;;;6.97;100.00;101176.13;4991377;28;20034;-77
2022/12/28 05:24:00;;;;;;;10.60;6.30;;;;;;;6.99;100.00;101168.19;4952996;28;20031;-76
2022/12/28 05:26:28;;;;;;;7.25;5.68;;;;;;;6.97;100.00;101170.06;4961935;28;20121;-76
2022/12/28 05:29:00;;;;;;;9.18;5.95;;;;;;;6.98;100.00;101158.66;4986110;28;20039;-76
2022/12/28 05:31:26;;;;;;;8.70;5.55;;;;;;;6.98;100.00;101159.50;4971442;28;20430;-76
2022/12/28 05:33:53;;;;;;;11.85;6.13;;;;;;;6.99;100.00;101163.81;4983365;28;20038;-76
2022/12/28 05:36:26;;;;;;;9.13;5.80;;;;;;;7.00;100.00;101162.03;4981506;28;20046;-75
2022/12/28 05:38:53;;;;;;;8.57;5.65;;;;;;;7.02;100.00;101162.78;4971151;28;20441;-75
2022/12/28 05:41:25;;;;;;;8.18;5.75;;;;;;;7.03;100.00;101161.88;4971139;28;20033;-76
2022/12/28 05:44:08;;;;;;;9.53;5.67;;;;;;;7.05;100.00;101167.84;4969355;28;20074;-76
2022/12/28 05:46:34;;;;;;;9.52;5.70;;;;;;;7.07;100.00;101161.63;4992416;28;20422;-75
2022/12/28 05:49:00;;;;;;;8.77;5.93;;;;;;;7.07;100.00;101153.75;4992006;28;20037;-75
2022/12/28 05:51:28;;;;;;;10.70;5.95;;;;;;;7.08;100.00;101157.22;4987146;28;20038;-76
2022/12/28 05:53:54;;;;;;;11.68;5.85;;;;;;;7.09;100.00;101158.91;4990590;28;20045;-75
2022/12/28 05:56:24;;;;;;;6.70;5.30;;;;;;;7.09;100.00;101166.75;4992001;28;20115;-77
2022/12/28 05:59:04;;;;;;;9.43;5.68;;;;;;;7.09;100.00;101153.69;4991096;28;20022;-77
2022/12/28 06:01:33;;;;;;;7.68;5.53;;;;;;;7.11;100.00;101152.66;4978466;28;20499;-77
2022/12/28 06:04:10;;;;;;;9.27;5.75;;;;;;;7.13;100.00;101156.03;4987065;28;20035;-76
2022/12/28 06:06:36;;;;;;;7.75;5.22;;;;;;;7.14;100.00;101146.41;4971005;28;20030;-76
2022/12/28 06:09:07;;;;;;;6.20;5.10;;;;;;;7.16;100.00;101140.19;4971002;28;20049;-75
2022/12/28 06:11:36;;;;;;;7.47;5.15;;;;;;;7.16;100.00;101134.94;4972170;28;20031;-76
2022/12/28 06:16:53;;;;;;;7.72;5.00;;;;;;;7.19;100.00;101120.84;4966968;28;20039;-76
2022/12/28 06:19:21;;;;;;;7.70;5.10;;;;;;;7.20;100.00;101125.16;4970314;28;20093;-76
2022/12/28 06:21:46;;;;;;;8.05;5.10;;;;;;;7.19;100.00;101113.00;4972472;28;20025;-76
2022/12/28 06:24:12;;;;;;;6.25;4.75;;;;;;;7.20;100.00;101120.78;4974872;28;20022;-76
2022/12/28 06:26:40;;;;;;;7.00;5.00;;;;;;;7.20;100.00;101112.94;4989190;28;20155;-76
2022/12/28 06:29:06;;;;;;;7.35;4.90;;;;;;;7.22;100.00;101103.22;4990366;28;20602;-76
2022/12/28 06:31:35;;;;;;;7.63;5.22;;;;;;;7.21;100.00;101108.53;4968702;28;20111;-76
2022/12/28 06:34:05;;;;;;;8.73;5.15;;;;;;;7.23;100.00;101104.91;4969644;28;20293;-76
2022/12/28 06:36:33;;;;;;;11.60;5.55;;;;;;;7.24;100.00;101100.53;4978029;28;20388;-76
2022/12/28 06:39:00;;;;;;;8.20;4.72;;;;;;;7.25;100.00;101099.59;4971039;28;20014;-76
2022/12/28 06:41:27;;;;;;;7.30;4.75;;;;;;;7.25;100.00;101090.91;4979222;28;20399;-76
2022/12/28 06:43:54;;;;;;;8.43;5.18;;;;;;;7.26;100.00;101088.19;4990987;28;20019;-76
2022/12/28 06:46:22;;;;;;;7.63;5.10;;;;;;;7.27;100.00;101089.03;4989470;28;20041;-77
2022/12/28 06:48:51;;;;;;;7.65;5.28;;;;;;;7.27;100.00;101089.88;4985586;28;20023;-76
2022/12/28 06:51:21;;;;;;;6.88;5.20;;;;;;;7.28;100.00;101077.63;4970239;28;20086;-76
2022/12/28 06:53:47;;;;;;;7.65;4.93;;;;;;;7.30;100.00;101089.69;4971338;28;20427;-77
2022/12/28 06:56:27;;;;;;;7.00;5.22;;;;;;;7.30;100.00;101088.84;4975814;28;20031;-78
2022/12/28 06:58:56;;;;;;;8.80;5.80;;;;;;;7.31;100.00;101086.16;4990976;28;20494;-76
2022/12/28 07:01:24;;;;;;;9.63;5.20;;;;;;;7.30;100.00;101083.63;4980813;28;20034;-76
2022/12/28 07:03:51;;;;;;;7.72;5.32;;;;;;;7.31;100.00;101088.78;4991417;28;20029;-76
2022/12/28 07:06:22;;;;;;;11.52;5.22;;;;;;;7.32;100.00;101082.59;4989020;28;20026;-76
2022/12/28 07:08:48;;;;;;;8.70;4.93;;;;;;;7.33;100.00;101081.69;4988813;28;20049;-76
2022/12/28 07:11:29;;;;;;;7.65;5.32;;;;;;;7.34;100.00;101080.75;4991982;28;20022;-76
2022/12/28 07:13:55;;;;;;;8.05;5.10;;;;;;;7.34;100.00;101085.97;4991213;28;20058;-76
2022/12/28 07:16:22;;;;;;;9.27;5.30;;;;;;;7.37;100.00;101085.81;4987367;28;20037;-76
2022/12/28 07:18:51;;;;;;;6.05;4.93;;;;;;;7.37;100.00;101084.97;4990083;28;20442;-76
2022/12/28 07:21:26;;;;;;;6.72;5.20;;;;;;;7.37;100.00;101082.34;4991304;28;20054;-76
2022/12/28 07:23:53;;;;;;;8.68;4.72;;;;;;;7.37;100.00;101085.81;4983494;28;20062;-76
2022/12/28 07:26:22;;;;;;;7.28;5.13;;;;;;;7.38;100.00;101087.50;4970224;28;20479;-76
2022/12/28 07:28:53;;;;;;;5.68;4.53;;;;;;;7.40;100.00;101084.78;4972082;28;20038;-76
2022/12/28 07:31:24;;;;;;;7.20;4.32;;;;;;;7.39;100.00;101076.09;4968219;28;20398;-77
2022/12/28 07:33:51;;;;;;;7.78;4.93;;;;;;;7.40;100.00;101071.69;4969775;28;20031;-76
2022/12/28 07:36:19;;;;;;;7.22;4.35;;;;;;;7.41;100.00;101079.47;4985068;28;20030;-76
2022/12/28 07:41:35;;;;;;;4.93;4.43;;;;;;;7.45;100.00;101078.34;4978624;28;20125;-76
2022/12/28 07:44:00;;;;;;;7.55;4.15;;;;;;;7.44;100.00;101076.66;4967982;28;20035;-76
2022/12/28 07:46:28;;;;;;;6.90;4.50;;;;;;;7.46;100.00;101079.19;4971271;28;20106;-76
2022/12/28 07:48:57;;;;;;;5.68;4.20;;;;;;;7.45;100.00;101078.34;4970579;28;20035;-76
2022/12/28 07:51:28;;;;;;;7.15;4.43;;;;;;;7.47;100.00;101091.34;4969071;28;20105;-76
2022/12/28 07:53:56;;;;;;;6.03;4.13;;;;;;;7.47;100.00;101089.56;4969558;28;20066;-76
2022/12/28 07:56:26;;;;;;;6.95;4.35;;;;;;;7.47;100.00;101086.97;4985283;28;20022;-79
2022/12/28 07:58:57;;;;;;;7.05;4.32;;;;;;;7.49;100.00;101085.09;4969880;28;20054;-79
2022/12/28 08:01:31;;;;;;;6.80;4.15;;;;;;;7.51;100.00;101093.69;4968755;28;20250;-79
2022/12/28 08:04:11;;;;;;;8.98;4.15;;;;;;;7.52;100.00;101095.38;4967204;28;20106;-78
2022/12/28 08:06:39;;;;;;;8.30;4.43;;;;;;;7.52;100.00;101084.91;4968316;28;20555;-79
2022/12/28 08:09:06;;;;;;;8.73;4.68;;;;;;;7.54;100.00;101088.28;4972424;28;20049;-77
2022/12/28 08:11:36;;;;;;;6.72;4.45;;;;;;;7.54;100.00;101084.81;4987690;28;20033;-77
2022/12/28 08:14:03;;;;;;;8.80;4.60;;;;;;;7.54;100.00;101085.66;4992234;28;20030;-77
2022/12/28 08:16:31;;;;;;;8.35;4.32;;;;;;;7.56;100.00;101090.81;4991161;28;20382;-76
2022/12/28 08:18:57;;;;;;;10.73;4.65;;;;;;;7.58;100.00;101082.88;4991087;28;20459;-77
2022/12/28 08:21:31;;;;;;;9.63;4.72;;;;;;;7.59;100.00;101087.19;4993528;28;20042;-77
2022/12/28 08:23:58;;;;;;;7.55;4.82;;;;;;;7.61;100.00;101069.63;4982748;28;20039;-77
2022/12/28 08:26:29;;;;;;;8.88;4.78;;;;;;;7.61;100.00;101072.25;4967419;28;20031;-77
2022/12/28 08:29:08;;;;;;;7.75;4.65;;;;;;;7.61;100.00;101077.50;4984033;28;20027;-77
2022/12/28 08:31:36;;;;;;;9.63;5.15;;;;;;;7.62;100.00;101079.19;4967502;28;20041;-76
2022/12/28 08:34:04;;;;;;;9.18;5.10;;;;;;;7.63;100.00;101089.56;4991218;28;20045;-77
2022/12/28 08:36:30;;;;;;;10.27;4.90;;;;;;;7.65;100.00;101079.00;4986499;28;20029;-77
2022/12/28 08:38:57;;;;;;;10.38;4.63;;;;;;;7.66;100.00;101080.69;4984748;28;20030;-76
2022/12/28 08:41:24;;;;;;;12.77;4.78;;;;;;;7.67;100.00;101077.13;4983927;28;20045;-77
2022/12/28 08:43:51;;;;;;;12.13;5.05;;;;;;;7.68;100.00;101078.81;4981107;28;20022;-77
2022/12/28 08:46:22;;;;;;;11.32;4.93;;;;;;;7.69;100.00;101075.25;5008280;28;20074;-77
2022/12/28 08:48:49;;;;;;;10.63;5.15;;;;;;;7.69;100.00;101076.09;4992820;28;20109;-78
2022/12/28 08:51:26;;;;;;;8.50;4.43;;;;;;;7.70;100.00;101083.03;4985214;28;20031;-77
2022/12/28 08:53:52;;;;;;;10.43;5.10;;;;;;;7.72;100.00;101075.09;4987572;28;20916;-77
2022/12/28 08:56:24;;;;;;;12.00;5.13;;;;;;;7.73;100.00;101079.38;4992693;28;20100;-77
2022/12/28 08:58:50;;;;;;;11.47;4.63;;;;;;;7.72;100.00;101075.09;4989281;28;20033;-77
2022/12/28 09:01:22;;;;;;;9.20;4.78;;;;;;;7.70;100.00;101079.56;4988822;28;20041;-77
2022/12/28 09:03:50;;;;;;;8.70;4.50;;;;;;;7.71;100.00;101079.47;4989679;28;20026;-77
2022/12/28 09:06:37;;;;;;;11.05;4.80;;;;;;;7.72;100.00;101069.84;4982463;28;20030;-77
2022/12/28 09:09:07;;;;;;;8.30;4.38;;;;;;;7.70;100.00;101079.56;4983119;28;20496;-79
2022/12/28 09:11:37;;;;;;;9.95;4.55;;;;;;;7.69;100.00;101078.72;4978920;28;20399;-78
2022/12/28 09:14:09;;;;;;;9.18;4.68;;;;;;;7.70;100.00;101076.94;5000563;28;20073;-77
2022/12/28 09:16:37;;;;;;;13.48;5.18;;;;;;;7.72;100.00;101075.09;4989572;28;20105;-79
2022/12/28 09:19:08;;;;;;;8.68;4.47;;;;;;;7.72;100.00;101075.09;4971736;28;20023;-77
2022/12/28 09:21:36;;;;;;;8.05;4.38;;;;;;;7.73;100.00;101090.72;4969837;28;20519;-77
2022/12/28 09:24:02;;;;;;;9.48;4.50;;;;;;;7.73;100.00;101076.78;4973895;28;20026;-78
2022/12/28 09:26:32;;;;;;;10.07;4.40;;;;;;;7.74;100.00;101078.47;4987874;28;20050;-78
2022/12/28 09:29:00;;;;;;;6.88;4.20;;;;;;;7.74;100.00;101083.69;4990400;28;20045;-77
2022/12/28 09:31:36;;;;;;;9.23;4.45;;;;;;;7.76;100.00;101076.59;4976051;28;20031;-77
2022/12/28 09:34:06;;;;;;;7.53;4.15;;;;;;;7.78;100.00;101074.72;4972671;28;20113;-78
2022/12/28 09:36:41;;;;;;;7.97;3.92;;;;;;;7.80;100.00;101075.47;4968854;28;20109;-78
2022/12/28 09:39:12;;;;;;;8.57;4.20;;;;;;;7.82;100.00;101076.22;4990473;28;20022;-78
2022/12/28 09:41:47;;;;;;;8.23;3.70;;;;;;;7.85;100.00;101076.03;4981818;28;20380;-78
2022/12/28 09:44:15;;;;;;;9.88;3.55;;;;;;;7.86;100.00;101075.09;4971849;28;20041;-78
2022/12/28 09:47:04;;;;;;;4.50;3.13;;;;;;;7.90;100.00;101088.88;4971007;28;20535;-77
2022/12/28 09:49:39;;;;;;;5.70;3.33;;;;;;;7.91;100.00;101080.91;4972914;28;20034;-77
2022/12/28 09:52:28;;;;;;;8.02;3.33;;;;;;;7.94;100.00;101075.50;4971918;28;20428;-77
2022/12/28 09:54:57;;;;;;;6.47;2.90;;;;;;;7.94;100.00;101075.50;4972707;28;20030;-77
2022/12/28 09:57:26;;;;;;;7.47;2.92;;;;;;;7.95;100.00;101069.31;4970234;28;20031;-77
2022/12/28 09:59:52;;;;;;;5.28;2.90;;;;;;;7.97;100.00;101067.44;4972228;28;20078;-77
2022/12/28 10:02:32;;;;;;;5.60;2.70;;;;;;;7.99;100.00;101073.44;4986543;28;20030;-77
2022/12/28 10:04:58;;;;;;;3.00;2.40;;;;;;;7.98;100.00;101074.38;4975302;28;20086;-77
2022/12/28 10:07:23;;;;;;;4.72;2.65;;;;;;;7.99;100.00;101078.69;4987306;28;20027;-77
2022/12/28 10:09:49;;;;;;;2.95;2.50;;;;;;;7.99;100.00;101076.06;4981690;28;20053;-77
2022/12/28 10:12:17;;;;;;;4.20;2.60;;;;;;;8.00;100.00;101063.78;4983875;28;20030;-77
2022/12/28 10:14:47;;;;;;;3.53;2.42;;;;;;;8.01;100.00;101068.97;4977950;28;20120;-78
2022/12/28 10:17:16;;;;;;;3.65;2.10;;;;;;;8.01;100.00;101071.59;4978692;28;20109;-78
2022/12/28 10:19:49;;;;;;;2.55;2.13;;;;;;;8.03;100.00;101064.47;4977159;28;20032;-78
2022/12/28 10:22:17;;;;;;;;;;;;;;;8.08;100.00;101058.97;4972566;28;20062;-78
2022/12/28 10:24:44;;;;;;;2.50;2.30;;;;;;;8.06;100.00;101052.97;4971585;28;19941;-78
2022/12/28 10:27:28;;;;;;;4.13;2.53;;;;;;;8.07;100.00;101052.88;4969692;28;20030;-78
2022/12/28 10:29:53;;;;;;;4.10;2.42;;;;;;;8.07;100.00;101052.88;4970973;28;20031;-78
2022/12/28 10:32:21;;;;;;;3.80;2.80;;;;;;;8.06;100.00;101053.81;4970702;28;20522;-78
2022/12/28 10:34:55;;;;;;;4.05;3.10;;;;;;;8.08;100.00;101051.94;4970499;28;20423;-78
2022/12/28 10:37:43;;;;;;;3.35;2.83;;;;;;;8.10;100.00;101055.31;4970695;28;20387;-78
2022/12/28 10:40:23;;;;;;;5.82;3.08;;;;;;;8.08;100.00;101051.94;4970992;28;20058;-78
2022/12/28 10:42:51;;;;;;;4.05;3.15;;;;;;;8.09;100.00;101047.56;4986752;28;20538;-78
2022/12/28 10:45:22;;;;;;;4.25;3.00;;;;;;;8.10;100.00;101051.84;4971148;28;20061;-78
2022/12/28 10:47:51;;;;;;;4.55;3.03;;;;;;;8.10;100.00;101050.06;4971135;28;20065;-78
2022/12/28 10:50:38;;;;;;;6.28;3.10;;;;;;;8.12;100.00;101042.97;4971745;28;20054;-78
2022/12/28 10:53:04;;;;;;;5.78;3.08;;;;;;;8.10;100.00;101038.75;4969865;28;20031;-76
2022/12/28 10:55:32;;;;;;;4.20;3.08;;;;;;;8.11;100.00;101035.19;4971285;28;20019;-78
2022/12/28 10:58:21;;;;;;;5.78;3.42;;;;;;;8.13;100.00;101028.09;4971787;28;20193;-78
2022/12/28 11:00:55;;;;;;;6.43;3.50;;;;;;;8.14;100.00;101030.59;4970051;28;20026;-77
2022/12/28 11:03:36;;;;;;;7.10;3.60;;;;;;;8.14;100.00;101024.53;4971008;28;20066;-77
2022/12/28 11:06:13;;;;;;;6.07;3.10;;;;;;;8.16;100.00;101027.88;4968973;28;20031;-78
2022/12/28 11:09:00;;;;;;;7.05;3.05;;;;;;;8.16;100.00;101027.88;4970662;28;20385;-78
2022/12/28 11:11:25;;;;;;;6.18;3.42;;;;;;;8.15;100.00;101024.44;4971879;28;20049;-77
2022/12/28 11:14:00;;;;;;;5.03;2.97;;;;;;;8.16;100.00;101018.25;4971639;28;20027;-76
2022/12/28 11:16:34;;;;;;;6.18;3.20;;;;;;;8.17;100.00;101008.59;4969856;28;20121;-77
2022/12/28 11:18:59;;;;;;;6.07;3.40;;;;;;;8.18;100.00;101020.78;4971041;28;20018;-77
2022/12/28 11:21:31;;;;;;;5.22;2.85;;;;;;;8.18;100.00;101008.50;4970351;28;20529;-77
2022/12/28 11:23:56;;;;;;;4.45;3.20;;;;;;;8.18;100.00;101008.50;4990186;28;20034;-77
2022/12/28 11:26:21;;;;;;;5.95;3.22;;;;;;;8.21;100.00;101004.84;4989474;28;20042;-78
2022/12/28 11:28:50;;;;;;;7.78;3.30;;;;;;;8.22;100.00;100996.06;4973085;28;20023;-78
2022/12/28 11:31:45;;;;;;;5.60;3.10;;;;;;;8.24;100.00;100999.44;4969511;28;20117;-78
2022/12/28 11:34:17;;;;;;;8.73;3.47;;;;;;;8.26;100.00;100991.47;4970147;28;20080;-78
2022/12/28 11:36:43;;;;;;;8.13;3.60;;;;;;;8.27;100.00;100982.66;4969627;28;20035;-78
2022/12/28 11:39:30;;;;;;;7.25;3.30;;;;;;;8.30;100.00;100977.22;4968974;28;20309;-77
2022/12/28 11:41:57;;;;;;;6.80;3.22;;;;;;;8.29;100.00;100973.78;4971776;28;20101;-78
2022/12/28 11:44:47;;;;;;;5.10;3.13;;;;;;;8.32;100.00;100970.13;4973015;28;20109;-77
2022/12/28 11:47:16;;;;;;;6.78;3.20;;;;;;;8.30;100.00;100970.22;4960523;28;20023;-78
2022/12/28 11:49:43;;;;;;;6.70;3.30;;;;;;;8.31;100.00;100964.03;4954710;28;20790;-77
2022/12/28 11:52:29;;;;;;;7.78;3.38;;;;;;;8.32;100.00;100964.88;4953900;29;20031;-77
2022/12/28 11:54:58;;;;;;;7.65;3.10;;;;;;;8.31;100.00;100953.53;4988397;28;20033;-77
2022/12/28 11:57:38;;;;;;;7.43;3.00;;;;;;;8.32;100.00;100946.50;4971342;28;20113;-77
2022/12/28 12:00:16;;;;;;;5.78;2.72;;;;;;;8.30;100.00;100941.38;4973295;28;20035;-76
2022/12/28 12:02:47;;;;;;;5.22;2.63;;;;;;;8.29;100.00;100938.84;4972334;28;20846;-78
2022/12/28 12:05:38;;;;;;;7.28;2.95;;;;;;;8.33;100.00;100937.72;4970144;28;20033;-78
2022/12/28 12:08:15;;;;;;;5.05;2.78;;;;;;;8.30;100.00;100940.53;4972973;28;20475;-78
2022/12/28 12:10:44;;;;;;;6.03;2.80;;;;;;;8.30;100.00;100935.28;4971391;28;20043;-78
2022/12/28 12:13:25;;;;;;;6.40;2.60;;;;;;;8.33;100.00;100924.59;4973993;28;20027;-79
2022/12/28 12:16:22;;;;;;;7.50;2.95;;;;;;;8.35;100.00;100926.22;4973856;28;20045;-77